createdAt,value
2019-01-27T00:02:14.676Z,5.20
2019-01-27T00:04:44.321Z,5.20
2019-01-27T00:07:13.958Z,5.20
2019-01-27T00:09:43.564Z,5.20
2019-01-27T00:12:13.193Z,5.20
2019-01-27T00:14:42.731Z,5.20
2019-01-27T00:17:12.941Z,5.10
2019-01-27T00:19:42.572Z,5.10
2019-01-27T00:22:12.565Z,5.20
2019-01-27T00:24:42.455Z,5.20
2019-01-27T00:27:12.388Z,5.20
2019-01-27T00:30:15.410Z,5.20
2019-01-27T00:32:45.060Z,5.10
2019-01-27T00:35:14.640Z,5.10
2019-01-27T00:37:44.704Z,5.10
2019-01-27T00:40:15.321Z,5.20
2019-01-27T00:42:45.740Z,5.20
2019-01-27T00:45:16.401Z,5.20
2019-01-27T00:47:46.048Z,5.20
2019-01-27T00:50:16.749Z,5.10
2019-01-27T00:52:46.832Z,5.10
2019-01-27T00:55:18.543Z,5.20
2019-01-27T00:57:48.516Z,5.20
2019-01-27T01:00:23.156Z,5.20
2019-01-27T01:02:52.696Z,5.20
2019-01-27T01:05:22.772Z,5.30
2019-01-27T01:07:52.825Z,5.30
2019-01-27T01:10:22.920Z,5.30
2019-01-27T01:12:52.716Z,5.30
2019-01-27T01:15:22.772Z,5.30
2019-01-27T01:17:52.641Z,5.30
2019-01-27T01:20:22.661Z,5.30
2019-01-27T01:22:52.459Z,5.30
2019-01-27T01:25:22.902Z,5.30
2019-01-27T01:27:53.091Z,5.30
2019-01-27T01:30:27.866Z,5.30
2019-01-27T01:32:58.311Z,5.30
2019-01-27T01:35:59.712Z,5.30
2019-01-27T01:38:29.524Z,5.30
2019-01-27T01:40:59.140Z,5.30
2019-01-27T01:43:28.769Z,5.30
2019-01-27T01:45:58.464Z,5.30
2019-01-27T01:48:28.464Z,5.30
2019-01-27T01:50:58.111Z,5.30
2019-01-27T01:53:27.796Z,5.30
2019-01-27T01:55:57.419Z,5.40
2019-01-27T01:58:27.292Z,5.40
2019-01-27T02:00:57.425Z,5.40
2019-01-27T02:03:26.968Z,5.40
2019-01-27T02:05:56.704Z,5.40
2019-01-27T02:08:26.749Z,5.40
2019-01-27T02:10:56.352Z,5.40
2019-01-27T02:13:26.165Z,5.40
2019-01-27T02:16:09.097Z,5.40
2019-01-27T02:18:39.940Z,5.50
2019-01-27T02:21:10.057Z,5.40
2019-01-27T02:23:40.055Z,5.40
2019-01-27T02:26:10.377Z,5.40
2019-01-27T02:28:40.295Z,5.50
2019-01-27T02:31:09.918Z,5.50
2019-01-27T02:33:39.906Z,5.50
2019-01-27T02:36:09.522Z,5.50
2019-01-27T02:38:39.132Z,5.60
2019-01-27T02:41:09.440Z,5.60
2019-01-27T02:43:39.256Z,5.60
2019-01-27T02:46:09.484Z,5.60
2019-01-27T02:48:39.021Z,5.60
2019-01-27T02:51:08.631Z,5.60
2019-01-27T02:53:38.605Z,5.60
2019-01-27T02:56:08.414Z,5.60
2019-01-27T02:58:50.616Z,5.50
2019-01-27T03:01:20.558Z,5.50
2019-01-27T03:03:50.186Z,5.50
2019-01-27T03:06:38.823Z,5.50
2019-01-27T03:09:13.861Z,5.50
2019-01-27T03:11:51.005Z,5.60
2019-01-27T03:14:21.671Z,5.60
2019-01-27T03:16:53.042Z,5.60
2019-01-27T03:19:23.403Z,5.60
2019-01-27T03:21:53.643Z,5.60
2019-01-27T03:24:23.375Z,5.60
2019-01-27T03:26:53.065Z,5.60
2019-01-27T03:29:22.639Z,5.60
2019-01-27T03:31:52.483Z,5.60
2019-01-27T03:34:22.681Z,5.60
2019-01-27T03:36:52.305Z,5.60
2019-01-27T03:39:21.846Z,5.60
2019-01-27T03:41:51.479Z,5.60
2019-01-27T03:44:21.516Z,5.60
2019-01-27T03:46:51.434Z,5.60
2019-01-27T03:49:21.071Z,5.60
2019-01-27T03:51:50.616Z,5.60
2019-01-27T03:54:20.539Z,5.50
2019-01-27T03:56:50.270Z,5.60
2019-01-27T03:59:19.797Z,5.60
2019-01-27T04:01:49.684Z,5.50
2019-01-27T04:04:19.640Z,5.50
2019-01-27T04:06:49.200Z,5.50
2019-01-27T04:09:18.884Z,5.50
2019-01-27T04:11:48.420Z,5.50
2019-01-27T04:14:18.230Z,5.50
2019-01-27T04:16:47.793Z,5.50
2019-01-27T04:19:17.413Z,5.50
2019-01-27T04:21:46.968Z,5.50
2019-01-27T04:24:16.853Z,5.50
2019-01-27T04:26:46.494Z,5.50
2019-01-27T04:29:16.376Z,5.40
2019-01-27T04:31:46.287Z,5.40
2019-01-27T04:34:15.842Z,5.50
2019-01-27T04:36:45.812Z,5.40
2019-01-27T04:39:15.361Z,5.50
2019-01-27T04:41:45.228Z,5.50
2019-01-27T04:44:15.341Z,5.50
2019-01-27T04:46:44.921Z,5.50
2019-01-27T04:49:14.766Z,5.50
2019-01-27T04:51:44.573Z,5.50
2019-01-27T04:54:14.125Z,5.50
2019-01-27T04:56:43.993Z,5.50
2019-01-27T04:59:13.544Z,5.50
2019-01-27T05:01:43.169Z,5.50
2019-01-27T05:04:21.841Z,5.50
2019-01-27T05:06:51.464Z,5.50
2019-01-27T05:09:21.341Z,5.50
2019-01-27T05:11:50.971Z,5.50
2019-01-27T05:14:20.863Z,5.60
2019-01-27T05:16:50.548Z,5.60
2019-01-27T05:19:20.103Z,5.60
2019-01-27T05:21:50.292Z,5.60
2019-01-27T05:24:19.908Z,5.60
2019-01-27T05:26:49.471Z,5.60
2019-01-27T05:29:19.420Z,5.60
2019-01-27T05:31:49.328Z,5.60
2019-01-27T05:34:19.208Z,5.60
2019-01-27T05:36:49.464Z,5.60
2019-01-27T05:39:19.276Z,5.60
2019-01-27T05:41:48.812Z,5.60
2019-01-27T05:44:18.918Z,5.60
2019-01-27T05:46:48.772Z,5.60
2019-01-27T05:49:18.321Z,5.60
2019-01-27T05:51:48.129Z,5.60
2019-01-27T05:54:20.191Z,5.60
2019-01-27T05:56:56.463Z,5.70
2019-01-27T05:59:21.336Z,5.70
2019-01-27T06:01:51.260Z,5.60
2019-01-27T06:04:20.801Z,5.60
2019-01-27T06:06:50.455Z,5.60
2019-01-27T06:09:20.391Z,5.60
2019-01-27T06:11:50.264Z,5.60
2019-01-27T06:14:20.111Z,5.60
2019-01-27T06:16:50.332Z,5.60
2019-01-27T06:19:19.948Z,5.70
2019-01-27T06:21:50.057Z,5.60
2019-01-27T06:24:19.866Z,5.60
2019-01-27T06:26:49.486Z,5.60
2019-01-27T06:29:19.050Z,5.70
2019-01-27T06:31:48.890Z,5.70
2019-01-27T06:34:19.992Z,5.70
2019-01-27T06:36:49.617Z,5.70
2019-01-27T06:39:19.756Z,5.70
2019-01-27T06:41:49.364Z,5.70
2019-01-27T06:44:19.176Z,5.70
2019-01-27T06:46:48.716Z,5.70
2019-01-27T06:49:18.621Z,5.70
2019-01-27T06:51:48.504Z,5.70
2019-01-27T06:54:18.320Z,5.70
2019-01-27T06:56:48.230Z,5.70
2019-01-27T06:59:49.473Z,5.70
2019-01-27T07:02:29.684Z,5.80
2019-01-27T07:05:02.578Z,5.80
2019-01-27T07:07:40.100Z,5.80
2019-01-27T07:10:35.527Z,5.80
2019-01-27T07:13:30.928Z,5.80
2019-01-27T07:16:22.455Z,5.80
2019-01-27T07:19:23.096Z,5.70
2019-01-27T07:22:10.816Z,5.80
2019-01-27T07:25:11.867Z,5.80
2019-01-27T07:28:09.444Z,5.80
2019-01-27T07:30:59.028Z,5.80
2019-01-27T07:33:53.974Z,5.80
2019-01-27T07:36:50.229Z,5.80
2019-01-27T07:39:48.296Z,5.80
2019-01-27T07:42:31.996Z,5.80
2019-01-27T07:45:08.065Z,5.80
2019-01-27T07:47:51.644Z,5.90
2019-01-27T07:50:40.869Z,5.90
2019-01-27T07:53:30.256Z,5.90
2019-01-27T07:56:24.948Z,5.90
2019-01-27T07:59:16.837Z,5.80
2019-01-27T08:01:59.924Z,5.80
2019-01-27T08:04:40.512Z,5.90
2019-01-27T08:07:18.160Z,5.90
2019-01-27T08:10:03.237Z,5.90
2019-01-27T08:12:58.232Z,5.90
2019-01-27T08:15:47.795Z,5.90
2019-01-27T08:18:28.943Z,5.90
2019-01-27T08:21:20.812Z,5.90
2019-01-27T08:24:24.884Z,5.90
2019-01-27T08:27:16.648Z,5.90
2019-01-27T08:30:04.545Z,5.90
2019-01-27T08:32:44.637Z,5.90
2019-01-27T08:35:48.474Z,5.90
2019-01-27T08:38:41.892Z,6.00
2019-01-27T08:41:22.169Z,6.00
2019-01-27T08:43:59.865Z,6.10
2019-01-27T08:46:51.898Z,6.20
2019-01-27T08:49:21.705Z,6.30
2019-01-27T08:51:51.517Z,6.30
2019-01-27T08:54:21.132Z,6.30
2019-01-27T08:56:50.937Z,6.30
2019-01-27T08:59:33.639Z,6.30
2019-01-27T09:02:33.165Z,6.30
2019-01-27T09:05:13.128Z,6.30
2019-01-27T09:08:00.600Z,6.30
2019-01-27T09:10:47.097Z,6.30
2019-01-27T09:13:34.760Z,6.30
2019-01-27T09:16:23.004Z,6.30
2019-01-27T09:18:58.336Z,6.40
2019-01-27T09:22:16.905Z,6.40
2019-01-27T09:25:19.479Z,6.40
2019-01-27T09:28:23.324Z,6.40
2019-01-27T09:31:11.014Z,6.40
2019-01-27T09:33:58.376Z,6.30
2019-01-27T09:37:06.992Z,6.30
2019-01-27T09:40:01.872Z,6.30
2019-01-27T09:42:53.757Z,6.30
2019-01-27T09:46:05.287Z,6.30
2019-01-27T09:48:36.826Z,6.30
2019-01-27T09:51:31.893Z,6.20
2019-01-27T09:54:32.981Z,6.30
2019-01-27T09:57:13.929Z,6.30
2019-01-27T10:00:04.173Z,6.40
2019-01-27T10:02:56.776Z,6.40
2019-01-27T10:05:50.815Z,6.40
2019-01-27T10:08:41.665Z,6.50
2019-01-27T10:11:30.745Z,6.50
2019-01-27T10:14:22.379Z,6.50
2019-01-27T10:17:11.305Z,6.60
2019-01-27T10:19:58.824Z,6.50
2019-01-27T10:22:47.147Z,6.60
2019-01-27T10:25:34.875Z,6.60
2019-01-27T10:28:19.967Z,6.60
2019-01-27T10:31:03.316Z,6.70
2019-01-27T10:33:58.312Z,6.70
2019-01-27T10:36:46.163Z,6.70
2019-01-27T10:39:46.944Z,6.80
2019-01-27T10:42:24.988Z,6.80
2019-01-27T10:45:12.708Z,6.90
2019-01-27T10:48:00.853Z,7.00
2019-01-27T10:50:57.055Z,7.00
2019-01-27T10:53:48.854Z,7.00
2019-01-27T10:56:36.729Z,7.00
2019-01-27T10:59:18.284Z,7.00
2019-01-27T11:02:10.369Z,7.00
2019-01-27T11:04:53.836Z,7.00
2019-01-27T11:07:32.808Z,7.00
2019-01-27T11:10:17.636Z,7.00
2019-01-27T11:13:05.324Z,7.00
2019-01-27T11:16:01.937Z,6.90
2019-01-27T11:18:40.041Z,6.90
2019-01-27T11:21:34.784Z,6.90
2019-01-27T11:24:19.713Z,7.00
2019-01-27T11:27:11.546Z,7.10
2019-01-27T11:29:57.438Z,7.20
2019-01-27T11:32:56.120Z,7.30
2019-01-27T11:35:44.045Z,7.50
2019-01-27T11:38:42.432Z,7.70
2019-01-27T11:41:19.249Z,7.90
2019-01-27T11:44:01.608Z,8.10
2019-01-27T11:46:59.568Z,8.30
2019-01-27T11:49:41.555Z,8.30
2019-01-27T11:52:19.183Z,8.30
2019-01-27T11:54:49.192Z,8.10
2019-01-27T11:57:19.207Z,8.10
2019-01-27T11:59:48.764Z,7.90
2019-01-27T12:02:19.031Z,7.70
2019-01-27T12:04:48.569Z,7.70
2019-01-27T12:07:18.420Z,7.70
2019-01-27T12:09:48.425Z,7.60
2019-01-27T12:12:18.090Z,7.50
2019-01-27T12:14:47.747Z,7.50
2019-01-27T12:17:17.291Z,7.40
2019-01-27T12:19:46.879Z,7.50
2019-01-27T12:22:17.011Z,7.50
2019-01-27T12:24:46.664Z,7.50
2019-01-27T12:27:23.106Z,7.50
2019-01-27T12:29:52.996Z,7.50
2019-01-27T12:32:22.909Z,7.40
2019-01-27T12:34:52.552Z,7.40
2019-01-27T12:37:22.104Z,7.40
2019-01-27T12:39:52.034Z,7.30
2019-01-27T12:42:44.789Z,7.30
2019-01-27T12:45:15.188Z,7.30
2019-01-27T12:47:45.132Z,7.20
2019-01-27T12:50:16.396Z,7.20
2019-01-27T12:52:47.534Z,7.10
2019-01-27T12:55:17.452Z,7.10
2019-01-27T12:57:47.450Z,7.10
2019-01-27T13:00:23.348Z,7.10
2019-01-27T13:02:53.309Z,7.10
2019-01-27T13:05:23.624Z,7.10
2019-01-27T13:07:54.625Z,7.00
2019-01-27T13:10:24.280Z,7.10
2019-01-27T13:12:53.824Z,7.00
2019-01-27T13:15:23.495Z,7.00
2019-01-27T13:17:53.120Z,7.00
2019-01-27T13:20:23.249Z,6.90
2019-01-27T13:22:53.003Z,6.90
2019-01-27T13:25:22.984Z,6.90
2019-01-27T13:28:05.352Z,6.80
2019-01-27T13:30:35.672Z,6.90
2019-01-27T13:33:05.583Z,6.90
2019-01-27T13:35:38.845Z,6.90
2019-01-27T13:38:07.556Z,6.90
2019-01-27T13:40:37.244Z,6.90
2019-01-27T13:43:07.015Z,6.90
2019-01-27T13:45:36.837Z,6.90
2019-01-27T13:48:06.555Z,6.90
2019-01-27T13:50:36.923Z,6.90
2019-01-27T13:53:06.829Z,6.80
2019-01-27T13:55:37.264Z,6.80
2019-01-27T13:58:07.153Z,6.80
2019-01-27T14:00:37.871Z,6.80
2019-01-27T14:03:07.644Z,6.80
2019-01-27T14:05:37.627Z,6.70
2019-01-27T14:08:07.949Z,6.80
2019-01-27T14:10:38.173Z,6.70
2019-01-27T14:13:08.391Z,6.80
2019-01-27T14:15:38.950Z,6.70
2019-01-27T14:18:08.944Z,6.80
2019-01-27T14:20:38.664Z,6.70
2019-01-27T14:23:08.664Z,6.70
2019-01-27T14:25:38.344Z,6.70
2019-01-27T14:28:08.140Z,6.70
2019-01-27T14:30:40.841Z,6.70
2019-01-27T14:33:10.520Z,6.70
2019-01-27T14:35:40.249Z,6.70
2019-01-27T14:38:10.040Z,6.70
2019-01-27T14:40:40.000Z,6.70
2019-01-27T14:43:09.679Z,6.60
2019-01-27T14:45:39.632Z,6.70
2019-01-27T14:48:09.953Z,6.70
2019-01-27T14:50:42.952Z,6.70
2019-01-27T14:53:13.686Z,6.70
2019-01-27T14:55:43.421Z,6.70
2019-01-27T14:58:13.713Z,6.70
2019-01-27T15:00:44.290Z,6.70
2019-01-27T15:03:14.977Z,6.70
2019-01-27T15:05:45.050Z,6.70
2019-01-27T15:08:14.679Z,6.70
2019-01-27T15:10:45.207Z,6.70
2019-01-27T15:13:15.018Z,6.70
2019-01-27T15:15:50.461Z,6.70
2019-01-27T15:18:20.373Z,6.70
2019-01-27T15:20:56.988Z,6.70
2019-01-27T15:23:26.640Z,6.70
2019-01-27T15:25:56.985Z,6.70
2019-01-27T15:28:26.616Z,6.60
2019-01-27T15:30:56.697Z,6.60
2019-01-27T15:33:26.632Z,6.60
2019-01-27T15:35:56.664Z,6.60
2019-01-27T15:38:26.654Z,6.60
2019-01-27T15:40:56.674Z,6.60
2019-01-27T15:43:26.572Z,6.60
2019-01-27T15:45:56.695Z,6.60
2019-01-27T15:48:26.383Z,6.60
2019-01-27T15:50:56.316Z,6.60
2019-01-27T15:53:25.868Z,6.60
2019-01-27T15:55:55.940Z,6.60
2019-01-27T15:58:26.173Z,6.50
2019-01-27T16:00:56.481Z,6.50
2019-01-27T16:03:27.271Z,6.60
2019-01-27T16:05:56.885Z,6.50
2019-01-27T16:08:26.423Z,6.50
2019-01-27T16:10:56.332Z,6.50
2019-01-27T16:13:26.033Z,6.50
2019-01-27T16:15:55.571Z,6.50
2019-01-27T16:18:25.680Z,6.50
2019-01-27T16:20:55.216Z,6.50
2019-01-27T16:23:46.865Z,6.50
2019-01-27T16:26:17.229Z,6.50
2019-01-27T16:28:47.173Z,6.50
2019-01-27T16:31:34.651Z,6.50
2019-01-27T16:34:14.204Z,6.50
2019-01-27T16:36:45.664Z,6.40
2019-01-27T16:39:25.085Z,6.40
2019-01-27T16:41:56.740Z,6.50
2019-01-27T16:44:33.633Z,6.50
2019-01-27T16:47:03.308Z,6.50
2019-01-27T16:49:32.852Z,6.40
2019-01-27T16:52:03.047Z,6.40
2019-01-27T16:54:32.853Z,6.40
2019-01-27T16:57:02.796Z,6.40
2019-01-27T16:59:32.513Z,6.40
2019-01-27T17:02:02.391Z,6.40
2019-01-27T17:04:32.204Z,6.40
2019-01-27T17:07:02.113Z,6.40
2019-01-27T17:09:31.732Z,6.40
2019-01-27T17:12:01.263Z,6.40
2019-01-27T17:14:31.421Z,6.40
2019-01-27T17:17:01.360Z,6.40
2019-01-27T17:19:31.280Z,6.40
2019-01-27T17:22:01.191Z,6.40
2019-01-27T17:24:32.021Z,6.40
2019-01-27T17:27:01.865Z,6.40
2019-01-27T17:29:34.612Z,6.40
2019-01-27T17:32:10.681Z,6.30
2019-01-27T17:34:40.593Z,6.30
2019-01-27T17:37:10.137Z,6.30
2019-01-27T17:39:39.764Z,6.30
2019-01-27T17:42:09.609Z,6.30
2019-01-27T17:44:39.153Z,6.30
2019-01-27T17:47:08.832Z,6.30
2019-01-27T17:49:38.464Z,6.30
2019-01-27T17:52:08.481Z,6.30
2019-01-27T17:54:38.019Z,6.30
2019-01-27T17:57:17.804Z,6.40
2019-01-27T17:59:54.161Z,6.30
2019-01-27T18:02:45.547Z,6.40
2019-01-27T18:05:40.480Z,6.40
2019-01-27T18:08:25.253Z,6.30
2019-01-27T18:11:20.243Z,6.40
2019-01-27T18:14:09.010Z,6.40
2019-01-27T18:16:38.904Z,6.40
2019-01-27T18:19:08.449Z,6.40
2019-01-27T18:21:38.130Z,6.40
2019-01-27T18:24:08.344Z,6.30
2019-01-27T18:26:37.883Z,6.30
2019-01-27T18:29:16.885Z,6.30
2019-01-27T18:31:46.607Z,6.20
2019-01-27T18:34:17.006Z,6.20
2019-01-27T18:36:47.030Z,6.10
2019-01-27T18:39:16.553Z,6.10
2019-01-27T18:41:46.296Z,6.10
2019-01-27T18:44:16.954Z,6.10
2019-01-27T18:46:46.980Z,6.00
2019-01-27T18:49:16.900Z,6.00
2019-01-27T18:51:46.706Z,6.00
2019-01-27T18:54:32.284Z,6.00
2019-01-27T18:57:24.440Z,5.90
2019-01-27T19:00:09.779Z,5.80
2019-01-27T19:03:02.545Z,5.70
2019-01-27T19:05:40.759Z,5.60
2019-01-27T19:08:32.700Z,5.40
2019-01-27T19:11:30.041Z,5.30
2019-01-27T19:14:10.805Z,5.20
2019-01-27T19:17:18.282Z,5.10
2019-01-27T19:19:56.004Z,5.10
2019-01-27T19:22:44.893Z,5.10
2019-01-27T19:25:25.746Z,5.00
2019-01-27T19:28:01.130Z,4.90
2019-01-27T19:30:59.320Z,5.00
2019-01-27T19:33:34.889Z,4.90
2019-01-27T19:36:33.451Z,4.90
2019-01-27T19:39:22.945Z,4.80
2019-01-27T19:42:23.996Z,4.70
2019-01-27T19:45:16.133Z,4.60
2019-01-27T19:47:54.558Z,4.50
2019-01-27T19:50:42.264Z,4.50
2019-01-27T19:53:23.752Z,4.50
2019-01-27T19:56:09.945Z,4.40
2019-01-27T19:59:13.825Z,4.40
2019-01-27T20:01:50.616Z,4.30
2019-01-27T20:04:42.864Z,4.30
2019-01-27T20:07:28.587Z,4.20
2019-01-27T20:10:21.805Z,4.10
2019-01-27T20:13:08.889Z,4.00
2019-01-27T20:16:00.868Z,4.00
2019-01-27T20:18:49.412Z,4.00
2019-01-27T20:21:53.436Z,4.00
2019-01-27T20:24:37.351Z,4.00
2019-01-27T20:27:23.959Z,4.00
2019-01-27T20:30:28.081Z,4.00
2019-01-27T20:33:15.881Z,4.00
2019-01-27T20:35:51.368Z,4.00
2019-01-27T20:38:38.953Z,3.90
2019-01-27T20:41:27.324Z,3.90
2019-01-27T20:44:15.296Z,3.90
2019-01-27T20:47:02.620Z,3.90
2019-01-27T20:49:47.558Z,3.90
2019-01-27T20:52:23.406Z,3.80
2019-01-27T20:55:12.953Z,3.70
2019-01-27T20:57:55.072Z,3.70
2019-01-27T21:00:34.780Z,3.70
2019-01-27T21:03:12.113Z,3.80
2019-01-27T21:05:54.993Z,3.80
2019-01-27T21:08:49.108Z,3.80
2019-01-27T21:11:31.315Z,3.70
2019-01-27T21:14:11.668Z,3.70
2019-01-27T21:16:51.571Z,3.70
2019-01-27T21:19:37.553Z,3.70
2019-01-27T21:22:07.297Z,3.70
2019-01-27T21:24:37.072Z,3.60
2019-01-27T21:27:07.002Z,3.60
2019-01-27T21:29:37.048Z,3.60
2019-01-27T21:32:07.011Z,3.60
2019-01-27T21:34:37.096Z,3.60
2019-01-27T21:37:08.125Z,3.50
2019-01-27T21:39:37.969Z,3.50
2019-01-27T21:42:08.056Z,3.50
2019-01-27T21:44:38.026Z,3.50
2019-01-27T21:47:07.649Z,3.60
2019-01-27T21:49:37.832Z,3.60
2019-01-27T21:52:07.560Z,3.60
2019-01-27T21:54:37.632Z,3.60
2019-01-27T21:57:07.434Z,3.70
2019-01-27T21:59:37.240Z,3.60
2019-01-27T22:02:07.258Z,3.70
2019-01-27T22:04:37.480Z,3.70
2019-01-27T22:07:07.392Z,3.80
2019-01-27T22:09:37.200Z,3.70
2019-01-27T22:12:06.837Z,3.70
2019-01-27T22:14:36.829Z,3.70
2019-01-27T22:17:07.667Z,3.70
2019-01-27T22:19:37.412Z,3.70
2019-01-27T22:22:07.097Z,3.70
2019-01-27T22:24:37.196Z,3.70
2019-01-27T22:27:08.540Z,3.70
2019-01-27T22:29:38.077Z,3.70
2019-01-27T22:32:29.057Z,3.70
2019-01-27T22:34:58.618Z,3.60
2019-01-27T22:37:28.480Z,3.60
2019-01-27T22:39:58.588Z,3.50
2019-01-27T22:42:28.159Z,3.50
2019-01-27T22:44:57.748Z,3.40
2019-01-27T22:47:27.612Z,3.40
2019-01-27T22:49:57.508Z,3.30
2019-01-27T22:52:27.056Z,3.30
2019-01-27T22:54:56.641Z,3.40
2019-01-27T22:57:26.592Z,3.40
2019-01-27T22:59:56.152Z,3.40
2019-01-27T23:02:25.843Z,3.50
2019-01-27T23:04:55.815Z,3.50
2019-01-27T23:08:12.076Z,3.60
2019-01-27T23:10:41.649Z,3.60
2019-01-27T23:13:11.808Z,3.60
2019-01-27T23:15:42.125Z,3.50
2019-01-27T23:18:11.836Z,3.60
2019-01-27T23:20:42.051Z,3.60
2019-01-27T23:23:15.048Z,3.60
2019-01-27T23:25:44.855Z,3.60
2019-01-27T23:28:14.386Z,3.50
2019-01-27T23:30:44.496Z,3.50
2019-01-27T23:33:22.238Z,3.50
2019-01-27T23:35:52.194Z,3.50
2019-01-27T23:38:22.840Z,3.50
2019-01-27T23:40:52.704Z,3.50
2019-01-27T23:43:22.347Z,3.50
2019-01-27T23:45:52.435Z,3.50
2019-01-27T23:48:22.490Z,3.50
2019-01-27T23:50:52.384Z,3.50
2019-01-27T23:53:21.940Z,3.50
2019-01-27T23:55:52.312Z,3.50
2019-01-27T23:58:21.872Z,3.50
